createdAt,value
2022-11-24T00:01:22.531Z,39.90
2022-11-24T00:04:05.803Z,39.20
2022-11-24T00:06:36.495Z,29.10
2022-11-24T00:09:05.177Z,32.10
2022-11-24T00:11:35.983Z,35.10
2022-11-24T00:14:04.748Z,32.90
2022-11-24T00:16:38.133Z,32.10
2022-11-24T00:19:09.707Z,42.10
2022-11-24T00:21:38.459Z,37.90
2022-11-24T00:24:06.489Z,41.00
2022-11-24T00:26:36.904Z,40.30
2022-11-24T00:29:07.520Z,42.90
2022-11-24T00:31:40.819Z,38.00
2022-11-24T00:34:13.594Z,41.90
2022-11-24T00:36:42.660Z,43.40
2022-11-24T00:39:13.126Z,44.00
2022-11-24T00:41:42.025Z,42.50
2022-11-24T00:44:09.693Z,32.00
2022-11-24T00:46:37.641Z,33.70
2022-11-24T00:49:05.933Z,33.20
2022-11-24T00:51:33.331Z,35.90
2022-11-24T00:54:01.683Z,34.40
2022-11-24T00:56:29.927Z,39.40
2022-11-24T00:58:57.550Z,22.20
2022-11-24T01:01:28.539Z,29.80
2022-11-24T01:03:56.554Z,23.20
2022-11-24T01:06:26.270Z,25.80
2022-11-24T01:08:54.368Z,25.10
2022-11-24T01:11:29.189Z,24.00
2022-11-24T01:13:59.351Z,21.70
2022-11-24T01:16:33.879Z,20.10
2022-11-24T01:19:03.208Z,25.60
2022-11-24T01:21:30.454Z,23.30
2022-11-24T01:23:57.878Z,22.30
2022-11-24T01:26:25.108Z,21.00
2022-11-24T01:28:57.839Z,24.40
2022-11-24T01:31:26.834Z,22.90
2022-11-24T01:33:54.784Z,21.10
2022-11-24T01:36:22.676Z,24.00
2022-11-24T01:38:50.263Z,24.50
2022-11-24T01:41:25.360Z,21.80
2022-11-24T01:43:54.888Z,20.90
2022-11-24T01:46:38.332Z,20.70
2022-11-24T01:49:08.787Z,23.00
2022-11-24T01:51:42.933Z,21.80
2022-11-24T01:54:23.485Z,22.20
2022-11-24T01:56:57.105Z,30.10
2022-11-24T01:59:25.514Z,27.70
2022-11-24T02:01:53.304Z,29.70
2022-11-24T02:04:30.976Z,24.90
2022-11-24T02:07:02.461Z,26.10
2022-11-24T02:09:40.733Z,27.30
2022-11-24T02:12:08.588Z,26.90
2022-11-24T02:14:39.343Z,27.30
2022-11-24T02:17:06.685Z,20.60
2022-11-24T02:20:05.449Z,20.50
2022-11-24T02:22:41.934Z,18.50
2022-11-24T02:25:14.997Z,21.40
2022-11-24T02:27:49.346Z,18.00
2022-11-24T02:30:19.737Z,20.40
2022-11-24T02:32:46.993Z,18.00
2022-11-24T02:35:14.343Z,26.30
2022-11-24T02:37:41.692Z,17.70
2022-11-24T02:40:09.986Z,13.60
2022-11-24T02:42:43.735Z,23.80
2022-11-24T02:45:12.130Z,20.50
2022-11-24T02:47:39.314Z,18.60
2022-11-24T02:50:06.855Z,25.00
2022-11-24T02:52:34.084Z,27.10
2022-11-24T02:55:01.440Z,24.00
2022-11-24T02:57:28.708Z,26.80
2022-11-24T02:59:56.164Z,28.60
2022-11-24T03:02:23.556Z,29.00
2022-11-24T03:04:51.027Z,20.40
2022-11-24T03:07:18.795Z,28.50
2022-11-24T03:09:46.212Z,32.30
2022-11-24T03:12:13.491Z,31.60
2022-11-24T03:14:40.628Z,32.70
2022-11-24T03:17:07.816Z,33.50
2022-11-24T03:19:35.207Z,37.20
2022-11-24T03:22:02.756Z,32.60
2022-11-24T03:24:30.167Z,34.30
2022-11-24T03:26:57.468Z,26.20
2022-11-24T03:29:24.851Z,32.10
2022-11-24T03:31:52.132Z,34.50
2022-11-24T03:34:19.679Z,34.90
2022-11-24T03:36:46.989Z,34.20
2022-11-24T03:39:14.287Z,31.20
2022-11-24T03:41:42.038Z,33.70
2022-11-24T03:44:09.465Z,35.60
2022-11-24T03:46:36.945Z,35.50
2022-11-24T03:49:04.567Z,26.50
2022-11-24T03:51:31.833Z,23.00
2022-11-24T03:53:59.216Z,27.50
2022-11-24T03:56:26.550Z,24.80
2022-11-24T03:58:54.058Z,30.00
2022-11-24T04:01:21.487Z,30.50
2022-11-24T04:03:48.963Z,28.40
2022-11-24T04:06:16.360Z,38.80
2022-11-24T04:09:07.378Z,40.00
2022-11-24T04:11:54.300Z,31.00
2022-11-24T04:14:23.075Z,34.10
2022-11-24T04:16:51.798Z,42.50
2022-11-24T04:19:20.335Z,40.40
2022-11-24T04:21:48.992Z,43.80
2022-11-24T04:24:17.680Z,38.90
2022-11-24T04:26:46.517Z,43.10
2022-11-24T04:29:15.192Z,48.80
2022-11-24T04:31:44.054Z,45.90
2022-11-24T04:34:13.017Z,39.10
2022-11-24T04:36:41.747Z,45.70
2022-11-24T04:39:23.250Z,40.00
2022-11-24T04:41:53.727Z,48.20
2022-11-24T04:44:22.466Z,41.80
2022-11-24T04:46:51.377Z,45.90
2022-11-24T04:49:20.712Z,41.60
2022-11-24T04:51:51.869Z,37.90
2022-11-24T04:54:20.724Z,43.40
2022-11-24T04:56:53.607Z,38.20
2022-11-24T04:59:29.623Z,43.60
2022-11-24T05:02:01.769Z,42.80
2022-11-24T05:04:33.638Z,47.00
2022-11-24T05:07:03.299Z,46.30
2022-11-24T05:09:54.959Z,43.20
2022-11-24T05:12:21.531Z,45.30
2022-11-24T05:14:51.353Z,45.50
2022-11-24T05:17:34.678Z,39.20
2022-11-24T05:20:06.744Z,42.90
2022-11-24T05:22:35.989Z,38.80
2022-11-24T05:25:05.176Z,41.90
2022-11-24T05:27:35.060Z,48.30
2022-11-24T05:30:05.655Z,42.90
2022-11-24T05:32:36.385Z,50.40
2022-11-24T05:35:06.407Z,42.50
2022-11-24T05:37:35.530Z,53.70
2022-11-24T05:40:05.926Z,52.30
2022-11-24T05:42:46.725Z,46.70
2022-11-24T05:45:21.785Z,53.90
2022-11-24T05:47:51.824Z,56.10
2022-11-24T05:50:22.948Z,50.80
2022-11-24T05:52:51.926Z,58.20
2022-11-24T05:55:21.007Z,48.50
2022-11-24T06:01:17.921Z,50.40
2022-11-24T06:03:47.017Z,44.90
2022-11-24T06:06:15.978Z,52.10
2022-11-24T06:08:45.165Z,51.10
2022-11-24T06:11:20.290Z,58.80
2022-11-24T06:13:49.116Z,51.10
2022-11-24T06:16:18.303Z,47.70
2022-11-24T06:18:47.255Z,35.60
2022-11-24T06:21:17.581Z,38.60
2022-11-24T06:23:49.609Z,41.40
2022-11-24T06:26:18.644Z,43.10
2022-11-24T06:28:47.468Z,52.80
2022-11-24T06:31:16.603Z,55.10
2022-11-24T06:33:45.561Z,45.20
2022-11-24T06:36:15.689Z,51.10
2022-11-24T06:38:44.704Z,54.90
2022-11-24T06:41:16.172Z,39.20
2022-11-24T06:43:45.660Z,42.80
2022-11-24T06:46:14.738Z,41.00
2022-11-24T06:48:43.752Z,43.90
2022-11-24T06:51:13.335Z,34.80
2022-11-24T06:53:42.263Z,32.60
2022-11-24T07:09:57.189Z,10.70
2022-11-24T07:12:26.036Z,13.40
2022-11-24T07:28:21.124Z,8.40
2022-11-24T07:30:49.997Z,10.80
2022-11-24T07:33:21.504Z,9.60
2022-11-24T07:35:50.178Z,9.20
2022-11-24T07:38:19.593Z,12.80
2022-11-24T07:40:48.349Z,13.40
2022-11-24T07:43:20.155Z,13.40
2022-11-24T07:45:54.133Z,13.90
2022-11-24T07:48:23.337Z,17.80
2022-11-24T07:50:55.954Z,16.50
2022-11-24T07:53:28.713Z,22.10
2022-11-24T07:56:02.488Z,19.40
2022-11-24T07:58:35.484Z,16.40
2022-11-24T08:01:17.283Z,18.40
2022-11-24T08:03:47.318Z,21.50
2022-11-24T08:06:28.652Z,22.70
2022-11-24T08:09:00.250Z,26.50
2022-11-24T08:11:31.735Z,30.10
2022-11-24T08:14:00.616Z,15.90
2022-11-24T08:16:29.541Z,23.60
2022-11-24T08:18:58.533Z,26.00
2022-11-24T08:21:27.350Z,25.10
2022-11-24T08:23:57.524Z,35.30
2022-11-24T08:26:27.093Z,29.50
2022-11-24T08:28:59.745Z,30.60
2022-11-24T08:31:34.122Z,24.40
2022-11-24T08:34:08.823Z,24.80
2022-11-24T08:36:37.679Z,30.70
2022-11-24T08:39:06.513Z,33.70
2022-11-24T08:41:35.459Z,29.20
2022-11-24T08:44:04.564Z,25.30
2022-11-24T08:46:33.865Z,25.90
2022-11-24T08:49:03.664Z,20.30
2022-11-24T08:51:32.557Z,25.10
2022-11-24T08:54:03.587Z,22.00
2022-11-24T08:56:33.913Z,30.70
2022-11-24T08:59:02.959Z,25.10
2022-11-24T09:01:32.265Z,26.40
2022-11-24T09:04:01.200Z,31.90
2022-11-24T09:06:33.139Z,29.80
2022-11-24T09:09:02.406Z,26.00
2022-11-24T09:11:33.587Z,22.10
2022-11-24T09:14:02.369Z,24.90
2022-11-24T09:16:31.427Z,28.50
2022-11-24T09:19:03.940Z,28.60
2022-11-24T09:21:38.184Z,31.10
2022-11-24T09:24:08.569Z,26.70
2022-11-24T09:26:41.865Z,24.80
2022-11-24T09:29:15.184Z,26.30
2022-11-24T09:31:44.024Z,34.20
2022-11-24T09:34:16.115Z,21.50
2022-11-24T09:36:44.991Z,29.80
2022-11-24T09:39:13.903Z,26.70
2022-11-24T09:42:03.758Z,39.00
2022-11-24T09:45:35.444Z,36.50
2022-11-24T09:48:46.608Z,31.60
2022-11-24T09:51:17.132Z,28.60
2022-11-24T09:54:16.621Z,30.40
2022-11-24T09:56:47.311Z,27.00
2022-11-24T09:59:24.991Z,28.70
2022-11-24T10:01:54.644Z,28.00
2022-11-24T10:04:35.812Z,28.30
2022-11-24T10:07:16.058Z,29.20
2022-11-24T10:10:05.586Z,28.00
2022-11-24T10:12:56.621Z,25.10
2022-11-24T10:15:56.621Z,32.00
2022-11-24T10:18:42.707Z,27.30
2022-11-24T10:22:04.314Z,19.90
2022-11-24T10:24:52.456Z,21.80
2022-11-24T10:27:50.723Z,19.50
2022-11-24T10:30:22.375Z,20.10
2022-11-24T10:33:30.906Z,24.80
2022-11-24T10:36:14.157Z,29.90
2022-11-24T10:39:01.671Z,27.30
2022-11-24T10:41:59.803Z,21.20
2022-11-24T10:44:29.315Z,21.50
2022-11-24T10:46:58.629Z,27.20
2022-11-24T10:49:34.377Z,24.40
2022-11-24T10:52:15.429Z,22.20
2022-11-24T10:57:45.415Z,13.50
2022-11-24T11:00:36.185Z,13.70
2022-11-24T11:03:24.514Z,17.10
2022-11-24T11:06:11.183Z,20.80
2022-11-24T11:08:40.563Z,18.90
2022-11-24T11:11:31.535Z,22.10
2022-11-24T11:14:06.387Z,14.80
2022-11-24T11:16:42.824Z,14.60
2022-11-24T11:19:48.360Z,17.40
2022-11-24T11:22:33.476Z,14.70
2022-11-24T11:25:12.626Z,16.50
2022-11-24T11:27:42.795Z,18.90
2022-11-24T11:36:19.349Z,28.10
2022-11-24T11:38:48.866Z,23.40
2022-11-24T11:41:40.685Z,25.90
2022-11-24T11:44:38.535Z,26.30
2022-11-24T11:47:25.092Z,31.00
2022-11-24T11:49:54.949Z,34.10
2022-11-24T11:52:48.891Z,28.30
2022-11-24T11:55:55.542Z,30.40
2022-11-24T11:58:59.503Z,27.30
2022-11-24T12:01:31.295Z,38.20
2022-11-24T12:04:43.663Z,33.40
2022-11-24T12:08:10.944Z,33.90
2022-11-24T12:10:57.202Z,33.60
2022-11-24T12:14:11.637Z,32.30
2022-11-24T12:17:21.362Z,20.20
2022-11-24T12:20:35.223Z,35.40
2022-11-24T12:23:44.842Z,18.10
2022-11-24T12:26:26.330Z,22.30
2022-11-24T12:29:29.092Z,32.20
2022-11-24T12:32:24.224Z,35.20
2022-11-24T12:35:06.073Z,24.90
2022-11-24T12:38:07.708Z,29.70
2022-11-24T12:40:51.967Z,22.00
2022-11-24T12:43:46.542Z,25.30
2022-11-24T12:46:39.945Z,18.40
2022-11-24T12:49:30.132Z,26.00
2022-11-24T12:52:06.578Z,27.20
2022-11-24T12:54:41.527Z,23.40
2022-11-24T12:57:22.836Z,38.20
2022-11-24T13:00:28.760Z,27.90
2022-11-24T13:03:03.468Z,20.20
2022-11-24T13:06:02.255Z,40.70
2022-11-24T13:08:32.070Z,20.20
2022-11-24T13:11:23.057Z,19.40
2022-11-24T13:14:16.779Z,18.30
2022-11-24T13:17:21.821Z,35.60
2022-11-24T13:19:42.641Z,37.00
2022-11-24T13:22:19.049Z,60.10
2022-11-24T13:25:12.733Z,32.20
2022-11-24T13:27:45.393Z,35.70
2022-11-24T13:33:16.873Z,38.10
2022-11-24T13:36:04.621Z,47.80
2022-11-24T13:38:44.561Z,35.90
2022-11-24T13:41:32.111Z,22.30
2022-11-24T13:44:16.615Z,18.90
2022-11-24T13:47:25.209Z,13.60
2022-11-24T14:01:19.482Z,23.30
2022-11-24T14:04:29.889Z,14.00
2022-11-24T14:07:09.164Z,17.30
2022-11-24T14:09:45.162Z,20.40
2022-11-24T14:12:25.287Z,22.40
2022-11-24T14:15:13.098Z,29.30
2022-11-24T14:17:44.090Z,23.90
2022-11-24T14:20:26.502Z,29.40
2022-11-24T14:22:55.346Z,27.10
2022-11-24T14:25:32.204Z,24.70
2022-11-24T14:28:01.645Z,20.30
2022-11-24T14:30:30.625Z,12.70
2022-11-24T14:33:01.527Z,23.20
2022-11-24T14:35:34.325Z,29.10
2022-11-24T14:38:05.660Z,24.10
2022-11-24T14:40:51.660Z,25.10
2022-11-24T14:43:29.215Z,35.50
2022-11-24T14:46:09.476Z,22.70
2022-11-24T14:48:53.587Z,24.20
2022-11-24T14:51:25.432Z,31.10
2022-11-24T14:54:02.210Z,23.10
2022-11-24T14:56:39.647Z,24.20
2022-11-24T14:59:27.429Z,20.60
2022-11-24T15:01:57.297Z,26.90
2022-11-24T15:07:29.881Z,29.40
2022-11-24T15:10:04.457Z,30.60
2022-11-24T15:12:51.396Z,27.60
2022-11-24T15:15:24.744Z,23.80
2022-11-24T15:17:58.543Z,36.50
2022-11-24T15:20:36.210Z,42.40
2022-11-24T15:23:36.722Z,34.40
2022-11-24T15:26:05.511Z,34.90
2022-11-24T15:28:34.420Z,30.40
2022-11-24T15:31:06.832Z,33.90
2022-11-24T15:33:35.816Z,37.80
2022-11-24T15:36:05.528Z,40.50
2022-11-24T15:38:34.470Z,24.50
2022-11-24T15:41:29.483Z,38.40
2022-11-24T15:43:59.762Z,43.30
2022-11-24T15:46:37.696Z,28.90
2022-11-24T15:49:10.505Z,38.70
2022-11-24T15:51:44.901Z,49.70
2022-11-24T15:54:19.142Z,44.20
2022-11-24T15:56:47.889Z,45.60
2022-11-24T15:59:20.657Z,46.60
2022-11-24T16:01:51.073Z,43.70
2022-11-24T16:04:20.369Z,46.90
2022-11-24T16:06:49.253Z,43.50
2022-11-24T16:09:17.994Z,43.70
2022-11-24T16:11:46.991Z,35.60
2022-11-24T16:14:15.963Z,36.70
2022-11-24T16:16:44.872Z,32.40
2022-11-24T16:19:16.027Z,34.50
2022-11-24T16:21:47.954Z,37.30
2022-11-24T16:24:16.860Z,31.70
2022-11-24T16:26:45.654Z,38.00
2022-11-24T16:29:15.335Z,40.50
2022-11-24T16:31:44.667Z,38.60
2022-11-24T16:34:13.596Z,38.70
2022-11-24T16:36:42.352Z,42.40
2022-11-24T16:39:11.320Z,44.00
